sensor_id;sensor_type;location;lat;lon;timestamp;temperature;humidity
26270;DHT22;15937;50.612;6.656;2022-08-04T00:00:33;22.20;99.90
26270;DHT22;15937;50.612;6.656;2022-08-04T00:08:50;22.40;99.90
26270;DHT22;15937;50.612;6.656;2022-08-04T00:12:56;22.10;99.90
26270;DHT22;15937;50.612;6.656;2022-08-04T00:16:59;22.20;99.90
26270;DHT22;15937;50.612;6.656;2022-08-04T00:21:04;22.30;99.90
26270;DHT22;15937;50.612;6.656;2022-08-04T00:25:06;22.20;99.90
26270;DHT22;15937;50.612;6.656;2022-08-04T00:29:08;22.10;99.90
26270;DHT22;15937;50.612;6.656;2022-08-04T00:33:10;22.00;99.90
26270;DHT22;15937;50.612;6.656;2022-08-04T00:37:13;22.30;99.90
26270;DHT22;15937;50.612;6.656;2022-08-04T00:50:09;21.90;99.90
26270;DHT22;15937;50.612;6.656;2022-08-04T00:58:22;22.10;99.90
26270;DHT22;15937;50.612;6.656;2022-08-04T01:02:33;22.10;99.90
26270;DHT22;15937;50.612;6.656;2022-08-04T01:06:37;22.10;99.90
26270;DHT22;15937;50.612;6.656;2022-08-04T01:10:57;22.00;99.90
26270;DHT22;15937;50.612;6.656;2022-08-04T01:15:14;21.90;99.90
26270;DHT22;15937;50.612;6.656;2022-08-04T01:36:05;21.60;99.90
26270;DHT22;15937;50.612;6.656;2022-08-04T01:40:10;21.60;99.90
26270;DHT22;15937;50.612;6.656;2022-08-04T01:44:14;21.40;99.90
26270;DHT22;15937;50.612;6.656;2022-08-04T01:48:17;21.40;99.90
26270;DHT22;15937;50.612;6.656;2022-08-04T01:52:24;21.40;99.90
26270;DHT22;15937;50.612;6.656;2022-08-04T01:56:28;21.20;99.90
26270;DHT22;15937;50.612;6.656;2022-08-04T02:00:31;21.10;99.90
26270;DHT22;15937;50.612;6.656;2022-08-04T02:04:34;21.10;99.90
26270;DHT22;15937;50.612;6.656;2022-08-04T02:17:30;20.80;99.90
26270;DHT22;15937;50.612;6.656;2022-08-04T02:21:32;20.80;99.90
26270;DHT22;15937;50.612;6.656;2022-08-04T02:25:46;20.80;99.90
26270;DHT22;15937;50.612;6.656;2022-08-04T02:29:58;20.90;99.90
26270;DHT22;15937;50.612;6.656;2022-08-04T02:34:08;20.90;99.90
26270;DHT22;15937;50.612;6.656;2022-08-04T02:38:11;21.10;99.90
26270;DHT22;15937;50.612;6.656;2022-08-04T02:42:13;21.20;99.90
26270;DHT22;15937;50.612;6.656;2022-08-04T02:46:19;21.10;99.90
26270;DHT22;15937;50.612;6.656;2022-08-04T02:50:23;21.20;99.90
26270;DHT22;15937;50.612;6.656;2022-08-04T02:54:31;21.30;99.90
26270;DHT22;15937;50.612;6.656;2022-08-04T02:58:34;21.20;99.90
26270;DHT22;15937;50.612;6.656;2022-08-04T03:15:16;21.00;99.90
26270;DHT22;15937;50.612;6.656;2022-08-04T03:23:38;20.90;99.90
26270;DHT22;15937;50.612;6.656;2022-08-04T03:36:27;20.80;99.90
26270;DHT22;15937;50.612;6.656;2022-08-04T03:53:30;20.70;99.90
26270;DHT22;15937;50.612;6.656;2022-08-04T04:01:53;20.60;99.90
26270;DHT22;15937;50.612;6.656;2022-08-04T04:10:24;20.60;99.90
26270;DHT22;15937;50.612;6.656;2022-08-04T04:22:43;20.50;99.90
26270;DHT22;15937;50.612;6.656;2022-08-04T04:26:54;20.60;99.90
26270;DHT22;15937;50.612;6.656;2022-08-04T04:31:15;20.60;99.90
26270;DHT22;15937;50.612;6.656;2022-08-04T04:39:31;20.80;99.90
26270;DHT22;15937;50.612;6.656;2022-08-04T04:48:06;20.90;99.90
26270;DHT22;15937;50.612;6.656;2022-08-04T04:52:23;20.90;99.90
26270;DHT22;15937;50.612;6.656;2022-08-04T05:13:31;21.70;99.90
26270;DHT22;15937;50.612;6.656;2022-08-04T05:17:54;22.00;99.90
26270;DHT22;15937;50.612;6.656;2022-08-04T05:21:59;22.50;99.90
26270;DHT22;15937;50.612;6.656;2022-08-04T05:26:09;22.60;99.90
26270;DHT22;15937;50.612;6.656;2022-08-04T05:30:12;22.60;99.90
26270;DHT22;15937;50.612;6.656;2022-08-04T05:34:14;22.80;99.90
26270;DHT22;15937;50.612;6.656;2022-08-04T05:38:19;23.00;99.90
26270;DHT22;15937;50.612;6.656;2022-08-04T05:42:21;23.50;99.90
26270;DHT22;15937;50.612;6.656;2022-08-04T05:46:23;23.90;99.90
26270;DHT22;15937;50.612;6.656;2022-08-04T05:50:26;24.30;99.90
26270;DHT22;15937;50.612;6.656;2022-08-04T05:54:34;24.40;99.90
26270;DHT22;15937;50.612;6.656;2022-08-04T05:58:36;24.30;99.90
26270;DHT22;15937;50.612;6.656;2022-08-04T06:02:38;24.10;99.90
26270;DHT22;15937;50.612;6.656;2022-08-04T06:06:44;24.40;99.90
26270;DHT22;15937;50.612;6.656;2022-08-04T06:10:46;24.80;99.90
26270;DHT22;15937;50.612;6.656;2022-08-04T06:14:49;25.00;99.90
26270;DHT22;15937;50.612;6.656;2022-08-04T06:18:52;25.20;99.90
26270;DHT22;15937;50.612;6.656;2022-08-04T06:23:15;25.40;99.90
26270;DHT22;15937;50.612;6.656;2022-08-04T06:27:17;25.70;99.90
26270;DHT22;15937;50.612;6.656;2022-08-04T06:31:22;26.10;99.90
26270;DHT22;15937;50.612;6.656;2022-08-04T06:36:04;26.30;99.90
26270;DHT22;15937;50.612;6.656;2022-08-04T06:40:07;26.50;99.90
26270;DHT22;15937;50.612;6.656;2022-08-04T06:44:29;26.40;99.90
26270;DHT22;15937;50.612;6.656;2022-08-04T06:48:31;26.60;99.90
26270;DHT22;15937;50.612;6.656;2022-08-04T06:52:34;26.60;99.90
26270;DHT22;15937;50.612;6.656;2022-08-04T06:56:36;26.50;99.90
26270;DHT22;15937;50.612;6.656;2022-08-04T07:00:40;26.70;99.90
26270;DHT22;15937;50.612;6.656;2022-08-04T07:04:42;26.70;99.90
26270;DHT22;15937;50.612;6.656;2022-08-04T07:08:45;27.20;99.50
26270;DHT22;15937;50.612;6.656;2022-08-04T07:12:46;27.30;98.90
26270;DHT22;15937;50.612;6.656;2022-08-04T07:16:48;27.40;99.50
26270;DHT22;15937;50.612;6.656;2022-08-04T07:20:51;27.60;98.10
26270;DHT22;15937;50.612;6.656;2022-08-04T07:24:53;27.70;97.10
26270;DHT22;15937;50.612;6.656;2022-08-04T07:28:57;28.10;95.70
26270;DHT22;15937;50.612;6.656;2022-08-04T07:33:00;28.30;94.90
26270;DHT22;15937;50.612;6.656;2022-08-04T07:37:02;28.50;95.40
26270;DHT22;15937;50.612;6.656;2022-08-04T07:41:04;28.40;95.00
26270;DHT22;15937;50.612;6.656;2022-08-04T07:45:26;28.60;93.60
26270;DHT22;15937;50.612;6.656;2022-08-04T07:49:32;28.70;93.20
26270;DHT22;15937;50.612;6.656;2022-08-04T07:53:53;28.90;92.90
26270;DHT22;15937;50.612;6.656;2022-08-04T07:57:57;29.10;91.80
26270;DHT22;15937;50.612;6.656;2022-08-04T08:01:59;29.30;91.10
26270;DHT22;15937;50.612;6.656;2022-08-04T08:06:02;29.90;90.90
26270;DHT22;15937;50.612;6.656;2022-08-04T08:10:24;30.00;88.90
26270;DHT22;15937;50.612;6.656;2022-08-04T08:14:26;30.00;90.10
26270;DHT22;15937;50.612;6.656;2022-08-04T08:18:29;30.20;83.90
26270;DHT22;15937;50.612;6.656;2022-08-04T08:22:30;30.50;86.00
26270;DHT22;15937;50.612;6.656;2022-08-04T08:26:32;30.90;83.80
26270;DHT22;15937;50.612;6.656;2022-08-04T08:30:35;30.80;79.90
26270;DHT22;15937;50.612;6.656;2022-08-04T08:34:37;30.90;76.80
26270;DHT22;15937;50.612;6.656;2022-08-04T08:38:42;30.90;78.20
26270;DHT22;15937;50.612;6.656;2022-08-04T08:47:31;31.60;65.50
26270;DHT22;15937;50.612;6.656;2022-08-04T08:52:01;31.60;66.70
26270;DHT22;15937;50.612;6.656;2022-08-04T08:56:15;31.90;62.70
26270;DHT22;15937;50.612;6.656;2022-08-04T09:04:57;32.30;56.60
26270;DHT22;15937;50.612;6.656;2022-08-04T09:17:29;31.90;55.30
26270;DHT22;15937;50.612;6.656;2022-08-04T09:21:38;32.10;53.10
26270;DHT22;15937;50.612;6.656;2022-08-04T09:34:08;31.90;52.70
26270;DHT22;15937;50.612;6.656;2022-08-04T09:38:14;31.90;53.90
26270;DHT22;15937;50.612;6.656;2022-08-04T09:42:19;32.00;53.20
26270;DHT22;15937;50.612;6.656;2022-08-04T09:46:38;32.00;53.30
26270;DHT22;15937;50.612;6.656;2022-08-04T09:50:42;32.00;54.50
26270;DHT22;15937;50.612;6.656;2022-08-04T09:55:08;31.80;54.70
26270;DHT22;15937;50.612;6.656;2022-08-04T10:03:14;31.90;54.10
26270;DHT22;15937;50.612;6.656;2022-08-04T10:28:30;32.90;51.00
26270;DHT22;15937;50.612;6.656;2022-08-04T10:32:52;32.90;55.70
26270;DHT22;15937;50.612;6.656;2022-08-04T10:36:58;33.10;52.20
26270;DHT22;15937;50.612;6.656;2022-08-04T10:41:05;33.30;52.00
26270;DHT22;15937;50.612;6.656;2022-08-04T10:45:16;33.20;52.00
26270;DHT22;15937;50.612;6.656;2022-08-04T10:53:24;34.20;54.20
26270;DHT22;15937;50.612;6.656;2022-08-04T10:57:34;34.20;51.80
26270;DHT22;15937;50.612;6.656;2022-08-04T11:01:38;33.40;52.60
26270;DHT22;15937;50.612;6.656;2022-08-04T11:06:03;33.20;52.80
26270;DHT22;15937;50.612;6.656;2022-08-04T11:10:05;33.10;52.80
26270;DHT22;15937;50.612;6.656;2022-08-04T11:14:11;32.70;55.00
26270;DHT22;15937;50.612;6.656;2022-08-04T11:18:18;32.90;55.70
26270;DHT22;15937;50.612;6.656;2022-08-04T11:22:23;32.70;55.60
26270;DHT22;15937;50.612;6.656;2022-08-04T11:30:54;32.30;56.60
26270;DHT22;15937;50.612;6.656;2022-08-04T11:34:59;32.40;55.60
26270;DHT22;15937;50.612;6.656;2022-08-04T11:39:13;32.30;56.80
26270;DHT22;15937;50.612;6.656;2022-08-04T11:43:18;32.30;56.90
26270;DHT22;15937;50.612;6.656;2022-08-04T11:47:45;32.50;55.50
26270;DHT22;15937;50.612;6.656;2022-08-04T11:51:49;32.70;57.70
26270;DHT22;15937;50.612;6.656;2022-08-04T11:55:53;32.30;58.20
26270;DHT22;15937;50.612;6.656;2022-08-04T12:00:12;31.90;61.60
26270;DHT22;15937;50.612;6.656;2022-08-04T12:04:22;31.70;64.60
26270;DHT22;15937;50.612;6.656;2022-08-04T12:08:50;31.00;67.90
26270;DHT22;15937;50.612;6.656;2022-08-04T12:17:18;30.40;71.70
26270;DHT22;15937;50.612;6.656;2022-08-04T12:21:28;30.10;75.80
26270;DHT22;15937;50.612;6.656;2022-08-04T12:25:35;29.80;77.20
26270;DHT22;15937;50.612;6.656;2022-08-04T12:29:45;30.00;76.90
26270;DHT22;15937;50.612;6.656;2022-08-04T12:34:16;29.60;77.70
26270;DHT22;15937;50.612;6.656;2022-08-04T12:38:19;29.60;79.00
26270;DHT22;15937;50.612;6.656;2022-08-04T12:46:33;30.00;80.20
26270;DHT22;15937;50.612;6.656;2022-08-04T12:50:35;30.60;80.20
26270;DHT22;15937;50.612;6.656;2022-08-04T12:54:37;30.70;78.90
26270;DHT22;15937;50.612;6.656;2022-08-04T12:58:43;30.60;79.20
26270;DHT22;15937;50.612;6.656;2022-08-04T13:02:45;30.90;78.10
26270;DHT22;15937;50.612;6.656;2022-08-04T13:06:52;30.70;79.00
26270;DHT22;15937;50.612;6.656;2022-08-04T13:10:56;30.60;79.20
26270;DHT22;15937;50.612;6.656;2022-08-04T13:14:59;31.10;77.90
26270;DHT22;15937;50.612;6.656;2022-08-04T13:19:10;31.50;75.70
26270;DHT22;15937;50.612;6.656;2022-08-04T13:23:13;31.60;75.70
26270;DHT22;15937;50.612;6.656;2022-08-04T13:27:22;31.60;76.10
26270;DHT22;15937;50.612;6.656;2022-08-04T13:31:26;31.40;75.90
26270;DHT22;15937;50.612;6.656;2022-08-04T13:35:36;31.50;75.40
26270;DHT22;15937;50.612;6.656;2022-08-04T13:39:56;31.60;75.80
26270;DHT22;15937;50.612;6.656;2022-08-04T13:44:00;31.30;76.20
26270;DHT22;15937;50.612;6.656;2022-08-04T13:48:20;30.80;77.20
26270;DHT22;15937;50.612;6.656;2022-08-04T13:52:33;30.60;77.50
26270;DHT22;15937;50.612;6.656;2022-08-04T13:56:37;30.90;78.30
26270;DHT22;15937;50.612;6.656;2022-08-04T14:00:59;31.00;78.00
26270;DHT22;15937;50.612;6.656;2022-08-04T14:05:04;31.70;76.80
26270;DHT22;15937;50.612;6.656;2022-08-04T14:09:19;31.30;76.80
26270;DHT22;15937;50.612;6.656;2022-08-04T14:13:36;31.60;76.10
26270;DHT22;15937;50.612;6.656;2022-08-04T14:17:42;31.70;75.70
26270;DHT22;15937;50.612;6.656;2022-08-04T14:21:44;31.20;76.90
26270;DHT22;15937;50.612;6.656;2022-08-04T14:25:45;30.70;78.80
26270;DHT22;15937;50.612;6.656;2022-08-04T14:29:47;31.40;78.20
26270;DHT22;15937;50.612;6.656;2022-08-04T14:33:50;31.30;76.90
26270;DHT22;15937;50.612;6.656;2022-08-04T14:38:06;31.30;77.80
26270;DHT22;15937;50.612;6.656;2022-08-04T14:42:08;31.20;77.90
26270;DHT22;15937;50.612;6.656;2022-08-04T14:46:14;31.00;78.60
26270;DHT22;15937;50.612;6.656;2022-08-04T14:50:17;30.70;79.80
26270;DHT22;15937;50.612;6.656;2022-08-04T14:54:32;30.70;79.20
26270;DHT22;15937;50.612;6.656;2022-08-04T14:58:34;30.30;79.40
26270;DHT22;15937;50.612;6.656;2022-08-04T15:02:40;30.20;79.70
26270;DHT22;15937;50.612;6.656;2022-08-04T15:06:43;30.30;80.20
26270;DHT22;15937;50.612;6.656;2022-08-04T15:10:47;30.30;79.00
26270;DHT22;15937;50.612;6.656;2022-08-04T15:14:48;30.30;80.20
26270;DHT22;15937;50.612;6.656;2022-08-04T15:18:50;30.10;83.10
26270;DHT22;15937;50.612;6.656;2022-08-04T15:22:55;29.70;84.50
26270;DHT22;15937;50.612;6.656;2022-08-04T15:26:57;29.40;85.50
26270;DHT22;15937;50.612;6.656;2022-08-04T15:31:04;29.20;85.90
26270;DHT22;15937;50.612;6.656;2022-08-04T15:35:26;29.00;86.30
26270;DHT22;15937;50.612;6.656;2022-08-04T15:39:56;28.60;87.70
26270;DHT22;15937;50.612;6.656;2022-08-04T15:44:13;28.20;89.60
26270;DHT22;15937;50.612;6.656;2022-08-04T15:52:20;27.90;92.30
26270;DHT22;15937;50.612;6.656;2022-08-04T16:00:27;27.60;93.50
26270;DHT22;15937;50.612;6.656;2022-08-04T16:04:28;27.60;94.20
26270;DHT22;15937;50.612;6.656;2022-08-04T16:09:18;27.60;95.20
26270;DHT22;15937;50.612;6.656;2022-08-04T16:13:17;27.70;95.90
26270;DHT22;15937;50.612;6.656;2022-08-04T16:17:20;27.60;96.20
26270;DHT22;15937;50.612;6.656;2022-08-04T16:21:23;28.00;95.90
26270;DHT22;15937;50.612;6.656;2022-08-04T16:25:40;27.80;95.70
26270;DHT22;15937;50.612;6.656;2022-08-04T16:29:47;27.10;97.80
26270;DHT22;15937;50.612;6.656;2022-08-04T16:33:48;27.30;97.90
26270;DHT22;15937;50.612;6.656;2022-08-04T16:38:11;27.10;98.60
26270;DHT22;15937;50.612;6.656;2022-08-04T16:42:47;27.20;98.80
26270;DHT22;15937;50.612;6.656;2022-08-04T16:46:42;27.30;99.20
26270;DHT22;15937;50.612;6.656;2022-08-04T16:51:07;27.30;99.10
26270;DHT22;15937;50.612;6.656;2022-08-04T16:55:19;27.70;98.50
26270;DHT22;15937;50.612;6.656;2022-08-04T16:59:24;27.70;98.30
26270;DHT22;15937;50.612;6.656;2022-08-04T17:03:26;27.80;97.90
26270;DHT22;15937;50.612;6.656;2022-08-04T17:07:47;27.70;98.00
26270;DHT22;15937;50.612;6.656;2022-08-04T17:12:09;28.00;97.70
26270;DHT22;15937;50.612;6.656;2022-08-04T17:16:12;27.90;97.90
26270;DHT22;15937;50.612;6.656;2022-08-04T17:20:25;28.30;97.80
26270;DHT22;15937;50.612;6.656;2022-08-04T17:24:27;28.70;97.50
26270;DHT22;15937;50.612;6.656;2022-08-04T17:28:29;28.20;98.10
26270;DHT22;15937;50.612;6.656;2022-08-04T17:32:48;28.30;97.30
26270;DHT22;15937;50.612;6.656;2022-08-04T17:36:52;28.40;97.10
26270;DHT22;15937;50.612;6.656;2022-08-04T17:50:04;28.20;98.10
26270;DHT22;15937;50.612;6.656;2022-08-04T17:54:06;28.30;97.40
26270;DHT22;15937;50.612;6.656;2022-08-04T18:02:39;28.00;97.60
26270;DHT22;15937;50.612;6.656;2022-08-04T18:06:54;27.90;98.30
26270;DHT22;15937;50.612;6.656;2022-08-04T18:11:00;27.80;98.90
26270;DHT22;15937;50.612;6.656;2022-08-04T18:15:06;27.30;99.90
26270;DHT22;15937;50.612;6.656;2022-08-04T18:19:15;27.00;99.90
26270;DHT22;15937;50.612;6.656;2022-08-04T18:23:20;27.10;99.90
26270;DHT22;15937;50.612;6.656;2022-08-04T18:27:32;27.00;99.90
26270;DHT22;15937;50.612;6.656;2022-08-04T18:31:34;26.90;99.90
26270;DHT22;15937;50.612;6.656;2022-08-04T18:35:38;26.70;99.90
26270;DHT22;15937;50.612;6.656;2022-08-04T18:40:00;26.70;99.90
26270;DHT22;15937;50.612;6.656;2022-08-04T18:44:22;26.70;99.90
26270;DHT22;15937;50.612;6.656;2022-08-04T18:48:28;26.70;99.90
26270;DHT22;15937;50.612;6.656;2022-08-04T18:52:37;26.60;99.90
26270;DHT22;15937;50.612;6.656;2022-08-04T18:56:45;26.30;99.90
26270;DHT22;15937;50.612;6.656;2022-08-04T19:01:08;26.50;99.90
26270;DHT22;15937;50.612;6.656;2022-08-04T19:05:14;26.40;99.90
26270;DHT22;15937;50.612;6.656;2022-08-04T19:09:18;26.50;99.90
26270;DHT22;15937;50.612;6.656;2022-08-04T19:13:22;26.40;99.90
26270;DHT22;15937;50.612;6.656;2022-08-04T19:17:27;26.40;99.90
26270;DHT22;15937;50.612;6.656;2022-08-04T19:21:49;26.20;99.90
26270;DHT22;15937;50.612;6.656;2022-08-04T19:26:05;26.10;99.90
26270;DHT22;15937;50.612;6.656;2022-08-04T19:30:28;26.10;99.90
26270;DHT22;15937;50.612;6.656;2022-08-04T19:34:30;26.10;99.90
26270;DHT22;15937;50.612;6.656;2022-08-04T19:38:35;26.10;99.90
26270;DHT22;15937;50.612;6.656;2022-08-04T19:42:38;25.80;99.90
26270;DHT22;15937;50.612;6.656;2022-08-04T19:46:41;25.60;99.90
26270;DHT22;15937;50.612;6.656;2022-08-04T19:50:46;25.30;99.90
26270;DHT22;15937;50.612;6.656;2022-08-04T19:54:48;25.00;99.90
26270;DHT22;15937;50.612;6.656;2022-08-04T19:58:50;25.00;99.90
26270;DHT22;15937;50.612;6.656;2022-08-04T20:02:53;24.90;99.90
26270;DHT22;15937;50.612;6.656;2022-08-04T20:06:55;24.90;99.90
26270;DHT22;15937;50.612;6.656;2022-08-04T20:10:58;24.80;99.90
26270;DHT22;15937;50.612;6.656;2022-08-04T20:15:00;24.60;99.90
26270;DHT22;15937;50.612;6.656;2022-08-04T20:19:03;24.50;99.90
26270;DHT22;15937;50.612;6.656;2022-08-04T20:23:19;24.50;99.90
26270;DHT22;15937;50.612;6.656;2022-08-04T20:27:41;24.40;99.90
26270;DHT22;15937;50.612;6.656;2022-08-04T20:32:00;24.30;99.90
26270;DHT22;15937;50.612;6.656;2022-08-04T20:36:09;24.30;99.90
26270;DHT22;15937;50.612;6.656;2022-08-04T20:40:10;24.10;99.90
26270;DHT22;15937;50.612;6.656;2022-08-04T20:44:13;24.00;99.90
26270;DHT22;15937;50.612;6.656;2022-08-04T20:48:28;24.00;99.90
26270;DHT22;15937;50.612;6.656;2022-08-04T20:52:34;23.90;99.90
26270;DHT22;15937;50.612;6.656;2022-08-04T20:56:38;23.70;99.90
26270;DHT22;15937;50.612;6.656;2022-08-04T21:00:51;23.70;99.90
26270;DHT22;15937;50.612;6.656;2022-08-04T21:04:53;23.70;99.90
26270;DHT22;15937;50.612;6.656;2022-08-04T21:08:56;23.60;99.90
26270;DHT22;15937;50.612;6.656;2022-08-04T21:12:58;23.60;99.90
26270;DHT22;15937;50.612;6.656;2022-08-04T21:17:00;23.60;99.90
26270;DHT22;15937;50.612;6.656;2022-08-04T21:21:06;23.60;99.90
26270;DHT22;15937;50.612;6.656;2022-08-04T21:25:08;23.70;99.90
26270;DHT22;15937;50.612;6.656;2022-08-04T21:29:17;23.70;99.90
26270;DHT22;15937;50.612;6.656;2022-08-04T21:33:18;23.60;99.90
26270;DHT22;15937;50.612;6.656;2022-08-04T21:37:22;23.60;99.90
26270;DHT22;15937;50.612;6.656;2022-08-04T21:41:44;23.60;99.90
26270;DHT22;15937;50.612;6.656;2022-08-04T21:46:06;23.50;99.90
26270;DHT22;15937;50.612;6.656;2022-08-04T21:50:07;23.50;99.90
26270;DHT22;15937;50.612;6.656;2022-08-04T21:54:09;23.50;99.90
26270;DHT22;15937;50.612;6.656;2022-08-04T21:58:31;23.40;99.90
26270;DHT22;15937;50.612;6.656;2022-08-04T22:02:33;23.40;99.90
26270;DHT22;15937;50.612;6.656;2022-08-04T22:06:35;23.40;99.90
26270;DHT22;15937;50.612;6.656;2022-08-04T22:10:38;23.30;99.90
26270;DHT22;15937;50.612;6.656;2022-08-04T22:14:44;23.50;99.90
26270;DHT22;15937;50.612;6.656;2022-08-04T22:18:58;23.50;99.90
26270;DHT22;15937;50.612;6.656;2022-08-04T22:23:00;23.50;99.90
26270;DHT22;15937;50.612;6.656;2022-08-04T22:27:17;23.50;99.90
26270;DHT22;15937;50.612;6.656;2022-08-04T22:31:37;23.00;99.90
26270;DHT22;15937;50.612;6.656;2022-08-04T22:35:57;22.90;99.90
26270;DHT22;15937;50.612;6.656;2022-08-04T22:39:59;22.80;99.90
26270;DHT22;15937;50.612;6.656;2022-08-04T22:44:02;22.60;99.90
26270;DHT22;15937;50.612;6.656;2022-08-04T22:48:04;21.90;99.90
26270;DHT22;15937;50.612;6.656;2022-08-04T22:52:08;21.80;99.90
26270;DHT22;15937;50.612;6.656;2022-08-04T22:56:29;21.70;99.90
26270;DHT22;15937;50.612;6.656;2022-08-04T23:00:39;21.50;99.90
26270;DHT22;15937;50.612;6.656;2022-08-04T23:04:41;21.40;99.90
26270;DHT22;15937;50.612;6.656;2022-08-04T23:08:44;21.40;99.90
26270;DHT22;15937;50.612;6.656;2022-08-04T23:12:48;21.40;99.90
26270;DHT22;15937;50.612;6.656;2022-08-04T23:16:51;21.20;99.90
26270;DHT22;15937;50.612;6.656;2022-08-04T23:20:53;21.30;99.90
26270;DHT22;15937;50.612;6.656;2022-08-04T23:24:55;21.40;99.90
26270;DHT22;15937;50.612;6.656;2022-08-04T23:28:57;21.50;99.90
26270;DHT22;15937;50.612;6.656;2022-08-04T23:32:58;21.70;99.90
26270;DHT22;15937;50.612;6.656;2022-08-04T23:37:00;21.60;99.90
26270;DHT22;15937;50.612;6.656;2022-08-04T23:41:07;21.50;99.90
26270;DHT22;15937;50.612;6.656;2022-08-04T23:45:14;21.60;99.90
26270;DHT22;15937;50.612;6.656;2022-08-04T23:49:35;21.60;99.90
26270;DHT22;15937;50.612;6.656;2022-08-04T23:53:45;21.50;99.90
26270;DHT22;15937;50.612;6.656;2022-08-04T23:58:04;21.60;99.90
